Time;durP1;ratioP1;P1;durP2;ratioP2;P2;SDS_P1;SDS_P2;PMS_P1;PMS_P2;Temp;Humidity;BMP_temperature;BMP_pressure;BME280_temperature;BME280_humidity;BME280_pressure;Samples;Min_cycle;Max_cycle;Signal;HPM_P1;HPM_P2
2023/09/23 00:00:11;;;;;;;3.00;2.90;;;15.10;99.90;;;15.33;99.70;100549.47;5055317;28;20120;-78
2023/09/23 00:02:43;;;;;;;3.00;2.90;;;15.20;99.90;;;15.04;100.00;100541.44;5054366;28;20048;-76
2023/09/23 00:05:15;;;;;;;3.30;3.20;;;15.00;99.90;;;14.93;100.00;100535.53;5054854;28;20123;-78
2023/09/23 00:07:44;;;;;;;3.72;3.60;;;14.80;99.90;;;14.72;100.00;100541.44;5055182;28;20052;-79
2023/09/23 00:10:13;;;;;;;6.57;4.03;;;14.60;99.90;;;14.60;100.00;100541.75;5054662;28;20067;-79
2023/09/23 00:12:41;;;;;;;3.47;3.38;;;14.40;99.90;;;14.70;100.00;100550.38;5054430;28;20095;-78
2023/09/23 00:15:11;;;;;;;3.28;3.00;;;14.50;99.90;;;14.06;100.00;100512.06;5054709;28;20065;-79
2023/09/23 00:17:41;;;;;;;4.60;4.07;;;14.10;99.90;;;13.88;100.00;100540.88;5050349;28;20508;-80
2023/09/23 00:20:16;;;;;;;4.00;3.80;;;13.70;99.90;;;13.88;100.00;100555.03;5047582;28;20045;-79
2023/09/23 00:22:46;;;;;;;4.40;4.20;;;13.60;99.90;;;13.99;100.00;100576.06;5054188;28;20044;-79
2023/09/23 00:25:18;;;;;;;3.83;3.63;;;13.70;99.90;;;14.01;100.00;100560.97;5054118;28;20475;-79
2023/09/23 00:27:48;;;;;;;4.32;4.13;;;13.80;99.90;;;13.91;100.00;100562.06;5054253;28;20053;-77
2023/09/23 00:30:17;;;;;;;3.88;3.67;;;13.80;99.90;;;13.89;100.00;100572.75;5066619;28;20049;-77
2023/09/23 00:32:48;;;;;;;3.30;3.20;;;13.80;99.90;;;14.04;100.00;100574.16;5053831;28;20419;-77
2023/09/23 00:35:18;;;;;;;3.65;3.53;;;13.90;99.90;;;14.27;100.00;100577.16;5054102;28;20468;-77
2023/09/23 00:37:50;;;;;;;4.05;3.85;;;14.00;99.90;;;14.43;100.00;100584.78;5061295;28;20060;-78
2023/09/23 00:40:23;;;;;;;3.25;3.15;;;14.20;99.90;;;14.63;100.00;100591.38;5054513;28;20049;-77
2023/09/23 00:42:52;;;;;;;3.97;3.78;;;14.40;99.90;;;14.77;100.00;100590.09;5053884;28;20506;-78
2023/09/23 00:45:22;;;;;;;3.60;3.50;;;14.50;99.90;;;14.82;100.00;100596.22;5054204;28;20049;-78
2023/09/23 00:47:51;;;;;;;3.05;2.95;;;14.60;99.90;;;14.95;100.00;100605.63;5053780;28;20052;-78
2023/09/23 00:50:20;;;;;;;3.25;3.15;;;14.70;99.90;;;15.01;100.00;100609.91;5054517;28;20102;-77
2023/09/23 00:52:53;;;;;;;3.15;3.05;;;14.80;99.90;;;15.03;100.00;100608.97;5053989;28;20548;-76
2023/09/23 00:55:24;;;;;;;3.00;2.90;;;14.80;99.90;;;15.05;100.00;100603.59;5066397;28;20084;-76
2023/09/23 00:57:54;;;;;;;3.95;3.65;;;14.80;99.90;;;14.99;100.00;100590.41;5049617;28;20132;-75
2023/09/23 01:00:27;;;;;;;3.47;3.30;;;14.80;99.90;;;14.97;100.00;100594.91;5053716;28;20053;-77
2023/09/23 01:02:55;;;;;;;3.58;3.38;;;14.80;99.90;;;14.71;100.00;100600.91;5052124;28;20781;-76
2023/09/23 01:05:27;;;;;;;3.90;3.70;;;14.70;99.90;;;14.67;100.00;100596.59;5053665;28;20044;-77
2023/09/23 01:08:11;;;;;;;3.40;3.30;;;14.60;99.90;;;14.59;100.00;100606.56;5052614;28;20060;-76
2023/09/23 01:10:40;;;;;;;3.63;3.50;;;14.50;99.90;;;14.54;100.00;100596.97;5052681;28;20505;-77
2023/09/23 01:13:08;;;;;;;5.22;4.85;;;14.40;99.90;;;14.42;100.00;100604.31;5053782;28;20079;-77
2023/09/23 01:15:40;;;;;;;4.13;3.90;;;14.40;99.90;;;14.34;100.00;100594.78;5052535;28;20048;-76
2023/09/23 01:18:13;;;;;;;4.95;4.65;;;14.30;99.90;;;14.22;100.00;100595.91;5053765;28;20059;-77
2023/09/23 01:20:43;;;;;;;4.13;3.92;;;14.20;99.90;;;14.17;100.00;100602.22;5065821;28;20096;-76
2023/09/23 01:23:13;;;;;;;3.78;3.58;;;14.10;99.90;;;14.29;100.00;100594.00;5052209;28;20076;-78
2023/09/23 01:25:43;;;;;;;4.25;4.05;;;14.10;99.90;;;14.33;100.00;100596.56;5054667;28;20478;-77
2023/09/23 01:28:13;;;;;;;4.22;4.03;;;14.20;99.90;;;14.29;100.00;100591.34;5053786;28;20471;-77
2023/09/23 01:30:43;;;;;;;3.72;3.53;;;14.10;99.90;;;14.33;100.00;100588.56;5052819;28;20700;-77
2023/09/23 01:33:13;;;;;;;3.50;3.40;;;14.20;99.90;;;14.38;100.00;100596.47;5053286;28;20044;-76
2023/09/23 01:35:43;;;;;;;3.95;3.75;;;14.20;99.90;;;14.32;100.00;100602.78;5053405;28;20056;-76
2023/09/23 01:38:15;;;;;;;4.15;3.95;;;14.20;99.90;;;14.42;100.00;100609.63;5053237;28;20053;-76
2023/09/23 01:40:44;;;;;;;3.33;3.22;;;14.30;99.90;;;14.63;100.00;100618.00;5053418;28;20057;-76
2023/09/23 01:43:14;;;;;;;3.78;3.58;;;14.40;99.90;;;14.74;100.00;100627.47;5052774;28;20061;-75
2023/09/23 01:45:43;;;;;;;3.50;3.40;;;14.50;99.90;;;14.75;100.00;100629.22;5052012;28;20045;-77
2023/09/23 01:48:11;;;;;;;4.97;4.65;;;14.60;99.90;;;14.60;100.00;100581.69;5053224;28;20047;-75
2023/09/23 01:50:41;;;;;;;3.40;3.30;;;14.70;99.90;;;14.78;100.00;100621.16;5065007;28;20061;-74
2023/09/23 01:53:18;;;;;;;3.78;3.58;;;14.60;99.90;;;14.80;100.00;100621.13;5049245;28;20051;-74
2023/09/23 01:55:48;;;;;;;3.58;3.47;;;14.60;99.90;;;14.85;100.00;100619.19;5038339;28;20044;-75
2023/09/23 01:58:17;;;;;;;3.58;3.47;;;14.60;99.90;;;14.92;100.00;100610.16;5048757;28;20050;-75
2023/09/23 02:00:45;;;;;;;3.40;3.30;;;14.70;99.90;;;14.91;100.00;100608.38;5046399;28;20491;-76
2023/09/23 02:03:14;;;;;;;3.08;2.97;;;14.70;99.90;;;14.93;100.00;100617.22;5052827;28;20094;-77
2023/09/23 02:05:43;;;;;;;3.17;3.07;;;14.70;99.90;;;14.98;100.00;100618.00;5053188;28;20434;-77
2023/09/23 02:08:11;;;;;;;3.00;2.90;;;14.80;99.90;;;14.95;100.00;100616.28;5053017;28;20041;-77
2023/09/23 02:10:44;;;;;;;3.40;3.30;;;14.80;99.90;;;15.05;100.00;100619.56;5053110;28;20044;-76
2023/09/23 02:13:14;;;;;;;3.35;3.25;;;14.80;99.90;;;15.07;100.00;100618.63;5051695;28;20049;-77
2023/09/23 02:15:45;;;;;;;3.20;3.10;;;14.80;99.90;;;15.06;100.00;100624.84;5052900;28;20045;-78
2023/09/23 02:18:15;;;;;;;4.07;3.88;;;14.80;99.90;;;15.06;100.00;100632.84;5052753;28;20521;-78
2023/09/23 02:20:44;;;;;;;4.07;3.83;;;14.80;99.90;;;15.05;100.00;100627.56;5052799;28;20079;-78
2023/09/23 02:23:12;;;;;;;3.47;3.38;;;14.80;99.90;;;15.10;100.00;100633.63;5052379;28;20129;-77
2023/09/23 02:25:43;;;;;;;3.30;3.20;;;14.90;99.90;;;15.09;100.00;100630.09;5058361;28;20107;-77
2023/09/23 02:28:13;;;;;;;3.40;3.20;;;14.80;99.90;;;15.16;100.00;100637.00;5058418;28;20048;-77
2023/09/23 02:30:42;;;;;;;4.45;4.25;;;14.90;99.90;;;14.48;100.00;100526.09;5058464;28;20668;-75
2023/09/23 02:33:10;;;;;;;3.10;3.00;;;14.90;99.90;;;15.04;100.00;100625.81;5058762;28;20045;-77
2023/09/23 02:35:40;;;;;;;3.35;3.25;;;14.80;99.90;;;15.15;100.00;100635.28;5057515;28;20049;-77
2023/09/23 02:38:10;;;;;;;4.22;4.00;;;14.90;99.90;;;14.50;100.00;100526.94;5059210;28;20049;-76
2023/09/23 02:40:43;;;;;;;2.80;2.70;;;14.90;99.90;;;15.14;100.00;100641.50;5060271;28;20045;-77
2023/09/23 02:43:12;;;;;;;3.30;3.20;;;14.90;99.90;;;15.17;100.00;100643.22;5071846;28;20049;-76
2023/09/23 02:45:41;;;;;;;3.00;2.90;;;14.90;99.90;;;15.18;100.00;100642.28;5059248;28;20045;-76
2023/09/23 02:48:13;;;;;;;2.97;2.88;;;14.90;99.90;;;15.22;100.00;100642.19;5057741;28;20136;-76
2023/09/23 02:50:42;;;;;;;2.83;2.72;;;14.90;99.90;;;15.28;100.00;100650.00;5059207;28;20049;-77
2023/09/23 02:53:10;;;;;;;2.95;2.85;;;15.00;99.90;;;15.29;100.00;100649.06;5058828;28;20049;-76
2023/09/23 02:55:41;;;;;;;3.00;2.90;;;15.00;99.90;;;15.28;100.00;100663.34;5059189;28;20045;-75
2023/09/23 02:58:10;;;;;;;;;;;15.10;99.90;;;15.32;100.00;100670.34;5059631;28;20128;-76
2023/09/23 03:00:41;;;;;;;2.83;2.72;;;15.00;99.90;;;15.32;100.00;100678.34;5059058;28;19944;-76
2023/09/23 03:03:18;;;;;;;;;;;15.10;99.90;;;15.24;100.00;100690.97;5059242;28;20139;-75
2023/09/23 03:05:54;;;;;;;2.90;2.80;;;15.00;99.90;;;15.28;100.00;100690.00;5054557;28;19943;-75
2023/09/23 03:08:24;;;;;;;3.17;3.08;;;15.00;99.90;;;15.33;100.00;100687.19;5057479;28;20120;-74
2023/09/23 03:10:53;;;;;;;2.95;2.85;;;15.10;99.90;;;15.42;100.00;100688.78;5071014;28;20472;-74
2023/09/23 03:13:23;;;;;;;3.10;3.00;;;15.10;99.90;;;15.44;100.00;100678.94;5059019;28;20394;-75
2023/09/23 03:15:58;;;;;;;;;;;15.20;99.90;;;15.50;100.00;100682.31;5058353;28;20091;-75
2023/09/23 03:18:33;;;;;;;3.60;3.47;;;15.20;99.90;;;15.41;100.00;100682.53;5043149;28;19924;-75
2023/09/23 03:21:07;;;;;;;3.05;2.95;;;15.20;99.90;;;15.43;100.00;100685.19;5057824;28;20471;-78
2023/09/23 03:23:37;;;;;;;3.22;3.13;;;15.20;99.90;;;15.29;100.00;100696.19;5057643;28;20044;-77
2023/09/23 03:26:06;;;;;;;2.80;2.70;;;15.10;99.90;;;15.22;100.00;100690.16;5058881;28;20045;-75
2023/09/23 03:28:36;;;;;;;3.10;3.00;;;15.10;99.90;;;15.20;100.00;100691.09;5071076;28;20071;-79
2023/09/23 03:31:08;;;;;;;3.45;3.35;;;15.10;99.90;;;15.31;100.00;100694.38;5057034;28;20136;-79
2023/09/23 03:33:44;;;;;;;2.95;2.85;;;15.10;99.90;;;15.42;100.00;100691.44;5058132;28;20409;-76
2023/09/23 03:36:15;;;;;;;3.20;3.10;;;15.20;99.90;;;15.41;100.00;100684.34;5055252;28;20465;-79
2023/09/23 03:38:46;;;;;;;3.33;3.22;;;15.20;99.90;;;15.53;100.00;100700.88;5055346;28;20136;-78
2023/09/23 03:41:15;;;;;;;2.92;2.83;;;15.30;99.90;;;15.46;100.00;100693.97;5055362;28;20120;-79
2023/09/23 03:43:43;;;;;;;3.28;3.17;;;15.30;99.90;;;15.50;100.00;100702.78;5055343;28;20056;-78
2023/09/23 03:46:16;;;;;;;15.25;4.68;;;15.30;99.90;;;15.52;100.00;100700.94;5050898;28;20053;-76
2023/09/23 03:48:44;;;;;;;2.80;2.70;;;15.30;99.90;;;15.56;100.00;100703.50;5061037;28;20379;-78
2023/09/23 03:51:14;;;;;;;2.85;2.75;;;15.30;99.90;;;15.58;100.00;100704.28;5067302;28;20491;-77
2023/09/23 03:53:44;;;;;;;2.92;2.83;;;15.30;99.90;;;15.60;100.00;100706.94;5054107;28;20076;-78
2023/09/23 03:56:13;;;;;;;2.70;2.60;;;15.30;99.90;;;15.65;100.00;100713.88;5053466;28;20053;-77
2023/09/23 03:58:43;;;;;;;2.70;2.60;;;15.40;99.90;;;15.65;100.00;100707.66;5055324;28;20044;-78
2023/09/23 04:01:14;;;;;;;2.60;2.50;;;15.40;99.90;;;15.55;100.00;100709.72;5055387;28;20041;-78
2023/09/23 04:03:43;;;;;;;2.92;2.83;;;15.30;99.90;;;15.43;100.00;100687.88;5053976;28;20051;-77
2023/09/23 04:06:12;;;;;;;2.75;2.65;;;15.30;99.90;;;15.53;100.00;100721.34;5066182;28;20049;-78
2023/09/23 04:08:40;;;;;;;3.03;2.92;;;15.30;99.90;;;15.56;100.00;100738.16;5055085;28;20045;-77
2023/09/23 04:11:09;;;;;;;2.72;2.63;;;15.30;99.90;;;15.57;100.00;100728.34;5054460;28;20485;-77
2023/09/23 04:13:38;;;;;;;2.88;2.78;;;15.30;99.90;;;15.54;100.00;100723.09;5038863;28;20049;-78
2023/09/23 04:16:06;;;;;;;2.92;2.83;;;15.30;99.90;;;15.52;100.00;100730.25;5054966;28;20044;-77
2023/09/23 04:18:36;;;;;;;2.80;2.70;;;15.30;99.90;;;15.55;100.00;100733.72;5054840;28;20501;-78
2023/09/23 04:21:05;;;;;;;;;;;15.30;99.90;;;15.57;100.00;100729.22;5054942;28;20521;-76
2023/09/23 04:23:34;;;;;;;2.60;2.50;;;15.30;99.90;;;15.52;100.00;100727.59;5054983;28;19920;-78
2023/09/23 04:26:03;;;;;;;2.80;2.70;;;15.30;99.90;;;15.56;100.00;100738.16;5054592;28;20036;-77
2023/09/23 04:28:32;;;;;;;2.92;2.83;;;15.30;99.90;;;15.58;100.00;100741.63;5054452;28;20044;-77
2023/09/23 04:31:00;;;;;;;2.90;2.80;;;15.30;99.90;;;15.54;100.00;100741.75;5054808;28;20565;-75
2023/09/23 04:33:29;;;;;;;2.90;2.80;;;15.30;99.90;;;15.43;100.00;100746.50;5054129;28;20163;-77
2023/09/23 04:35:59;;;;;;;2.92;2.83;;;15.20;99.90;;;15.49;100.00;100757.88;5049033;28;20053;-78
2023/09/23 04:38:27;;;;;;;2.80;2.70;;;15.20;99.90;;;15.56;100.00;100758.59;5047448;28;20099;-77
2023/09/23 04:40:55;;;;;;;2.70;2.60;;;15.30;99.90;;;15.55;100.00;100763.03;5054167;28;20037;-78
2023/09/23 04:43:25;;;;;;;2.80;2.70;;;15.30;99.90;;;15.55;100.00;100760.38;5054121;28;20053;-78
2023/09/23 04:45:54;;;;;;;3.10;3.00;;;15.30;99.90;;;15.58;100.00;100770.09;5053936;28;20223;-78
2023/09/23 04:48:24;;;;;;;2.80;2.70;;;15.30;99.90;;;15.54;100.00;100769.31;5066069;28;20064;-78
2023/09/23 04:50:55;;;;;;;3.13;3.03;;;15.30;99.90;;;15.38;100.00;100776.78;5053357;28;20077;-78
2023/09/23 04:53:27;;;;;;;3.03;2.92;;;15.20;99.90;;;15.44;100.00;100774.91;5053866;28;20437;-78
2023/09/23 04:55:55;;;;;;;2.70;2.60;;;15.20;99.90;;;15.46;100.00;100773.97;5053737;28;20052;-78
2023/09/23 04:58:23;;;;;;;2.78;2.67;;;15.20;99.90;;;15.55;100.00;100783.50;5065927;28;20467;-78
2023/09/23 05:00:52;;;;;;;3.25;3.15;;;15.20;99.90;;;15.55;100.00;100789.69;5054122;28;20045;-76
2023/09/23 05:03:23;;;;;;;3.30;3.20;;;15.30;99.90;;;15.55;100.00;100791.47;5053663;28;20049;-78
2023/09/23 05:05:51;;;;;;;2.92;2.80;;;15.30;99.90;;;15.58;100.00;100794.09;5054021;28;20127;-78
2023/09/23 05:08:20;;;;;;;3.05;2.95;;;15.30;99.90;;;15.60;100.00;100790.44;5053992;28;20123;-77
2023/09/23 05:10:49;;;;;;;3.03;2.92;;;15.30;99.90;;;15.73;100.00;100799.91;5053959;28;20513;-79
2023/09/23 05:13:18;;;;;;;3.00;2.90;;;15.40;99.90;;;15.74;100.00;100792.75;5053189;28;20512;-79
2023/09/23 05:15:46;;;;;;;2.90;2.80;;;15.50;99.90;;;15.77;100.00;100798.03;5053705;28;20096;-78
2023/09/23 05:18:15;;;;;;;2.78;2.67;;;15.50;99.90;;;15.74;100.00;100796.31;5053474;28;20044;-77
2023/09/23 05:20:43;;;;;;;2.75;2.65;;;15.50;99.90;;;15.77;100.00;100801.56;5053621;28;20045;-77
2023/09/23 05:23:11;;;;;;;3.30;3.20;;;15.50;99.90;;;15.75;100.00;100808.72;5053404;28;20668;-78
2023/09/23 05:25:41;;;;;;;3.10;3.00;;;15.50;99.90;;;15.77;100.00;100806.03;5053291;28;20045;-77
2023/09/23 05:28:11;;;;;;;2.83;2.72;;;15.50;99.90;;;15.78;100.00;100808.63;5053116;28;20049;-78
2023/09/23 05:30:39;;;;;;;3.10;3.00;;;15.50;99.90;;;15.59;100.00;100785.16;5053579;28;20036;-78
2023/09/23 05:33:08;;;;;;;3.33;3.22;;;15.50;99.90;;;15.71;100.00;100820.41;5053412;28;20048;-77
2023/09/23 05:35:39;;;;;;;3.08;2.97;;;15.50;99.90;;;15.64;100.00;100820.59;5053048;28;20068;-77
2023/09/23 05:38:09;;;;;;;3.08;2.97;;;15.40;99.90;;;15.64;100.00;100825.94;5052516;28;20049;-78
2023/09/23 05:40:37;;;;;;;;;;;15.40;99.90;;;15.67;100.00;100832.06;5053496;28;20045;-78
2023/09/23 05:43:06;;;;;;;2.97;2.88;;;15.40;99.90;;;15.71;100.00;100855.06;5052756;28;19931;-77
2023/09/23 05:45:37;;;;;;;2.80;2.70;;;15.40;99.90;;;15.64;100.00;100836.59;5052514;28;20055;-78
2023/09/23 05:48:07;;;;;;;2.80;2.70;;;15.50;99.90;;;15.93;100.00;100858.06;5053418;28;20052;-77
2023/09/23 05:50:36;;;;;;;2.85;2.75;;;15.60;99.90;;;16.02;100.00;100852.47;5052531;28;20072;-76
2023/09/23 05:53:05;;;;;;;3.28;3.08;;;15.70;99.90;;;16.04;100.00;100858.63;5053021;28;20052;-77
2023/09/23 05:55:33;;;;;;;2.88;2.78;;;15.80;99.90;;;16.03;100.00;100854.19;5053063;28;20083;-76
2023/09/23 05:58:02;;;;;;;3.40;3.30;;;15.80;99.90;;;16.04;100.00;100864.88;5051497;28;20053;-76
2023/09/23 06:00:30;;;;;;;2.80;2.70;;;15.80;99.90;;;16.10;100.00;100863.81;5052065;28;20040;-77
2023/09/23 06:03:00;;;;;;;2.72;2.63;;;15.90;99.90;;;16.14;100.00;100878.84;5052486;28;20041;-76
2023/09/23 06:05:28;;;;;;;2.88;2.78;;;15.90;99.90;;;16.17;100.00;100879.63;5052982;28;20056;-76
2023/09/23 06:07:57;;;;;;;2.90;2.80;;;15.90;99.90;;;16.24;100.00;100877.63;5036858;28;20045;-76
2023/09/23 06:10:25;;;;;;;3.00;2.90;;;16.00;99.90;;;16.10;100.00;100875.34;5053246;28;20450;-76
2023/09/23 06:12:54;;;;;;;2.70;2.60;;;15.90;99.90;;;16.21;100.00;100883.06;5052734;28;20049;-76
2023/09/23 06:15:22;;;;;;;2.70;2.60;;;15.90;99.90;;;16.27;100.00;100883.78;5052321;28;20453;-76
2023/09/23 06:17:51;;;;;;;2.80;2.70;;;16.00;99.90;;;16.32;100.00;100891.66;5052346;28;20056;-75
2023/09/23 06:20:21;;;;;;;2.90;2.80;;;16.10;99.90;;;16.38;100.00;100895.94;5052466;28;20132;-76
2023/09/23 06:22:49;;;;;;;2.77;2.67;;;16.10;99.90;;;16.40;100.00;100889.66;5052463;28;20048;-75
2023/09/23 06:25:18;;;;;;;2.70;2.60;;;16.20;99.90;;;16.47;99.81;100904.59;5052276;28;20132;-75
2023/09/23 06:27:46;;;;;;;2.97;2.88;;;16.20;99.90;;;16.52;99.63;100904.50;5052392;28;20495;-75
2023/09/23 06:30:15;;;;;;;2.92;2.83;;;16.20;99.90;;;16.51;98.98;100902.75;5052347;28;20106;-74
2023/09/23 06:32:44;;;;;;;2.97;2.88;;;16.30;99.90;;;16.45;98.76;100903.78;5053039;28;20049;-75
2023/09/23 06:35:14;;;;;;;2.50;2.40;;;16.30;99.90;;;16.49;99.36;100912.59;5052497;28;20128;-74
2023/09/23 06:37:44;;;;;;;3.25;3.15;;;16.30;99.90;;;16.40;99.58;100924.38;5052818;28;20140;-75
2023/09/23 06:40:12;;;;;;;2.58;2.47;;;16.20;99.90;;;16.39;100.00;100935.97;5052067;28;20467;-74
2023/09/23 06:42:41;;;;;;;2.80;2.70;;;16.10;99.90;;;16.39;100.00;100937.75;5051917;28;20064;-74
2023/09/23 06:45:10;;;;;;;3.50;3.40;;;16.10;99.90;;;16.42;100.00;100938.53;5051453;28;20102;-75
2023/09/23 06:47:38;;;;;;;2.90;2.80;;;16.10;99.90;;;16.44;100.00;100944.72;5050813;28;20060;-75
2023/09/23 06:50:08;;;;;;;2.85;2.75;;;16.20;99.90;;;16.41;100.00;100944.81;5051839;28;20111;-75
2023/09/23 06:52:36;;;;;;;3.08;2.97;;;16.20;99.90;;;16.53;100.00;100949.84;5051892;28;20056;-74
2023/09/23 06:55:07;;;;;;;2.83;2.72;;;16.30;99.90;;;16.50;100.00;100947.28;5052414;28;20056;-76
2023/09/23 06:57:35;;;;;;;;;;;16.20;99.90;;;16.58;100.00;100953.28;5052964;28;20099;-76
2023/09/23 07:00:07;;;;;;;2.70;2.60;;;16.30;99.90;;;16.53;100.00;100955.19;5051833;28;20389;-76
2023/09/23 07:02:36;;;;;;;2.60;2.50;;;16.40;99.90;;;16.44;100.00;100914.47;5052455;28;20037;-77
2023/09/23 07:05:05;;;;;;;2.70;2.60;;;16.40;99.90;;;16.70;100.00;100957.41;5035533;28;20045;-76
2023/09/23 07:07:33;;;;;;;2.83;2.72;;;16.40;99.90;;;16.72;99.95;100964.47;5052062;28;20102;-75
2023/09/23 07:10:04;;;;;;;3.20;3.10;;;16.50;99.90;;;16.80;99.63;100962.44;5052020;28;20083;-80
2023/09/23 07:12:34;;;;;;;2.80;2.70;;;16.60;99.90;;;16.75;99.33;100968.81;5055954;28;20482;-78
2023/09/23 07:15:02;;;;;;;2.83;2.73;;;16.50;99.90;;;16.83;99.41;100969.50;5056345;28;20519;-72
2023/09/23 07:17:30;;;;;;;2.70;2.60;;;16.60;99.90;;;16.90;99.25;100977.28;5055732;28;20275;-71
2023/09/23 07:19:59;;;;;;;2.60;2.50;;;16.70;99.90;;;16.93;98.94;100982.56;5055416;28;20056;-72
2023/09/23 07:22:27;;;;;;;3.22;3.13;;;16.70;99.90;;;16.97;98.69;100983.34;5055554;28;20129;-83
2023/09/23 07:24:55;;;;;;;2.80;2.70;;;16.80;99.90;;;17.01;98.25;100987.69;5055758;28;20041;-85
2023/09/23 07:27:24;;;;;;;2.85;2.75;;;16.80;99.90;;;16.99;97.82;100984.19;5055746;28;20119;-80
2023/09/23 07:29:54;;;;;;;2.65;2.55;;;16.80;99.90;;;17.02;97.71;100994.75;5055888;28;20505;-80
2023/09/23 07:32:23;;;;;;;2.88;2.78;;;16.80;99.90;;;16.99;97.83;100997.53;5055543;28;20056;-80
2023/09/23 07:34:52;;;;;;;2.78;2.67;;;16.80;99.90;;;16.92;97.93;101002.16;5055741;28;20044;-77
2023/09/23 07:37:20;;;;;;;3.95;3.75;;;16.80;99.90;;;16.93;98.04;101009.28;5055641;28;20057;-81
2023/09/23 07:39:49;;;;;;;2.70;2.60;;;16.70;99.90;;;16.94;97.69;101013.69;5055687;28;20426;-78
2023/09/23 07:42:17;;;;;;;2.90;2.80;;;16.70;99.90;;;17.01;97.22;101017.94;5054696;28;20084;-79
2023/09/23 07:44:45;;;;;;;2.88;2.78;;;16.80;99.90;;;17.03;97.05;101026.78;5054446;28;20444;-80
2023/09/23 07:47:15;;;;;;;3.10;3.00;;;16.80;99.90;;;17.03;97.28;101005.41;5054748;28;20127;-78
2023/09/23 07:49:43;;;;;;;3.17;3.08;;;16.90;99.90;;;17.29;96.37;101034.06;5054783;28;20055;-74
2023/09/23 07:52:12;;;;;;;4.35;4.05;;;17.10;99.90;;;17.31;95.95;101045.59;5054276;28;20041;-75
2023/09/23 07:54:40;;;;;;;2.70;2.60;;;17.10;99.90;;;17.37;94.84;101050.75;5054746;28;20471;-73
2023/09/23 07:57:08;;;;;;;2.90;2.80;;;17.20;99.90;;;17.47;93.93;101054.03;5054951;28;20053;-70
2023/09/23 07:59:37;;;;;;;2.70;2.60;;;17.30;99.90;;;17.40;93.46;101063.19;5054839;28;20049;-70
2023/09/23 08:02:05;;;;;;;2.75;2.65;;;17.20;99.90;;;17.43;93.15;101068.44;5054560;28;20072;-72
2023/09/23 08:04:35;;;;;;;2.90;2.80;;;17.30;99.90;;;17.52;93.26;101068.19;5055017;28;20098;-72
2023/09/23 08:07:04;;;;;;;2.88;2.78;;;17.30;99.90;;;17.79;94.46;101072.69;5054675;28;20136;-70
2023/09/23 08:09:32;;;;;;;3.13;3.03;;;17.60;99.90;;;18.03;93.90;101083.53;5054505;28;20069;-70
2023/09/23 08:12:00;;;;;;;3.33;3.22;;;17.80;99.90;;;18.11;91.37;101083.31;5054931;28;20041;-69
2023/09/23 08:14:29;;;;;;;2.85;2.75;;;17.90;99.90;;;18.11;90.54;101093.13;5066699;28;20475;-69
2023/09/23 08:16:57;;;;;;;2.50;2.40;;;18.00;99.90;;;18.16;89.16;101093.84;5046051;28;20049;-68
2023/09/23 08:19:26;;;;;;;3.58;3.38;;;17.90;99.90;;;18.07;88.07;101100.38;5054173;28;20041;-68
2023/09/23 08:21:55;;;;;;;2.83;2.72;;;17.90;99.90;;;18.21;88.66;101108.88;5054116;28;20372;-71
2023/09/23 08:24:23;;;;;;;2.95;2.85;;;18.00;99.90;;;18.55;89.96;101114.91;5054087;28;20163;-69
2023/09/23 08:26:53;;;;;;;3.63;3.42;;;18.30;99.90;;;18.57;87.61;101113.06;5054222;28;20091;-70
2023/09/23 08:29:23;;;;;;;2.95;2.85;;;18.40;99.90;;;18.50;85.54;101130.25;5054775;28;20060;-72
2023/09/23 08:31:52;;;;;;;2.78;2.67;;;18.40;99.90;;;18.57;84.86;101122.88;5038898;28;20051;-72
2023/09/23 08:34:20;;;;;;;3.08;2.97;;;18.40;99.90;;;18.48;83.75;101133.91;5066995;28;20391;-73
2023/09/23 08:36:49;;;;;;;2.90;2.80;;;18.40;99.90;;;18.50;83.31;101134.75;5047250;28;20045;-74
2023/09/23 08:39:19;;;;;;;2.70;2.60;;;18.30;99.90;;;18.42;82.68;101139.44;5054284;28;20099;-73
2023/09/23 08:41:52;;;;;;;2.78;2.67;;;18.20;99.90;;;18.43;83.04;101152.81;5054198;28;20049;-77
2023/09/23 08:44:24;;;;;;;3.17;3.08;;;18.30;99.90;;;18.58;82.42;101146.94;5054390;28;20053;-76
2023/09/23 08:46:56;;;;;;;3.20;3.10;;;18.40;99.90;;;18.63;81.77;101161.09;5053937;28;20478;-76
2023/09/23 08:49:30;;;;;;;3.40;3.30;;;18.40;99.90;;;18.51;81.51;101147.19;5054025;28;20045;-76
2023/09/23 08:52:04;;;;;;;3.00;2.90;;;18.40;99.90;;;18.71;81.99;101164.41;5052029;28;20851;-72
2023/09/23 08:54:37;;;;;;;3.10;3.00;;;18.50;99.90;;;18.84;81.56;101165.72;5053465;28;20512;-73
2023/09/23 08:57:05;;;;;;;2.90;2.80;;;18.60;99.90;;;19.12;81.73;101170.16;5053344;28;20498;-73
2023/09/23 08:59:34;;;;;;;2.80;2.70;;;18.90;99.90;;;19.58;81.84;101168.50;5054150;28;20043;-75
2023/09/23 09:02:03;;;;;;;2.78;2.67;;;19.30;99.90;;;20.09;82.00;101181.75;5052550;28;20441;-71
2023/09/23 09:04:31;;;;;;;2.53;2.42;;;19.80;99.90;;;20.46;78.81;101183.94;5053384;28;20037;-73
2023/09/23 09:06:59;;;;;;;3.72;2.67;;;20.20;99.90;;;20.64;75.36;101186.75;5053514;28;20487;-74
2023/09/23 09:09:28;;;;;;;2.60;2.50;;;20.50;99.90;;;20.88;73.82;101181.31;5053914;28;20044;-72
2023/09/23 09:11:58;;;;;;;2.70;2.60;;;20.70;99.90;;;20.94;74.46;101197.19;5053665;28;20049;-72
2023/09/23 09:14:27;;;;;;;2.47;2.38;;;20.80;99.90;;;21.04;72.33;101198.59;5054211;28;20052;-79
2023/09/23 09:16:55;;;;;;;2.55;2.45;;;20.90;99.90;;;20.81;70.11;101204.03;5053519;28;20048;-76
2023/09/23 09:19:23;;;;;;;2.67;2.58;;;20.70;99.90;;;20.83;70.38;101211.06;5053602;28;20082;-80
2023/09/23 09:21:53;;;;;;;2.88;2.78;;;20.60;99.90;;;20.76;71.04;101208.69;5053440;28;20037;-74
2023/09/23 09:24:22;;;;;;;2.60;2.50;;;20.60;99.90;;;20.57;67.77;101214.84;5053594;28;20467;-72
2023/09/23 09:26:51;;;;;;;2.55;2.45;;;20.40;99.90;;;20.68;70.43;101217.97;5053534;28;20048;-71
2023/09/23 09:29:21;;;;;;;2.70;2.60;;;20.50;99.90;;;20.67;69.01;101226.94;5053483;28;20049;-74
2023/09/23 09:31:51;;;;;;;2.83;2.72;;;20.50;99.90;;;20.70;69.59;101231.34;5053768;28;20064;-72
2023/09/23 09:34:25;;;;;;;2.65;2.55;;;20.50;99.90;;;20.56;68.15;101229.19;5052618;28;20115;-72
2023/09/23 09:36:57;;;;;;;2.67;2.58;;;20.40;99.90;;;20.47;68.88;101221.50;5037708;28;20044;-70
2023/09/23 09:39:30;;;;;;;2.90;2.80;;;20.30;99.90;;;20.57;70.90;101222.03;5053445;28;20052;-76
2023/09/23 09:41:59;;;;;;;2.50;2.40;;;20.40;99.90;;;20.68;70.12;101236.78;5053025;28;20061;-77
2023/09/23 09:44:31;;;;;;;2.78;2.67;;;20.50;99.90;;;20.74;71.76;101229.41;5053167;28;20037;-72
2023/09/23 09:47:00;;;;;;;2.53;2.42;;;20.50;99.90;;;20.65;69.72;101233.34;5053270;28;20041;-72
2023/09/23 09:49:29;;;;;;;3.00;2.90;;;20.50;99.90;;;20.60;71.31;101241.59;5053464;28;20041;-72
2023/09/23 09:51:57;;;;;;;3.00;2.90;;;20.40;99.90;;;20.76;71.91;101240.97;5053098;28;20045;-72
2023/09/23 09:54:26;;;;;;;2.70;2.60;;;20.60;99.90;;;20.87;72.62;101246.78;5051275;28;20059;-72
2023/09/23 09:56:56;;;;;;;3.00;2.90;;;20.60;99.90;;;20.71;70.58;101245.66;5052043;28;20048;-72
2023/09/23 09:59:27;;;;;;;2.95;2.85;;;20.50;99.90;;;20.85;71.37;101249.53;5052047;28;20052;-73
2023/09/23 10:01:58;;;;;;;3.38;3.13;;;20.70;99.90;;;20.17;73.13;101246.81;5052706;28;20049;-71
2023/09/23 10:04:32;;;;;;;2.97;2.88;;;20.10;99.90;;;19.21;77.69;101253.88;5036714;28;20055;-72
2023/09/23 10:07:01;;;;;;;2.50;2.40;;;19.20;99.90;;;19.01;79.85;101252.78;5052637;28;20049;-72
2023/09/23 10:09:33;;;;;;;2.45;2.35;;;18.90;99.90;;;18.51;82.18;101265.97;5052620;28;20107;-72
2023/09/23 10:12:04;;;;;;;2.60;2.50;;;18.40;99.90;;;18.23;84.37;101262.34;5052590;28;20544;-74
2023/09/23 10:14:33;;;;;;;3.10;2.95;;;18.10;99.90;;;18.46;85.75;101267.91;5052857;28;20102;-73
2023/09/23 10:17:05;;;;;;;2.63;2.53;;;18.20;99.90;;;18.20;85.55;101277.59;5053067;28;20045;-73
2023/09/23 10:19:38;;;;;;;2.85;2.75;;;18.00;99.90;;;17.73;87.89;101279.81;5052517;28;20044;-72